Time;durP1;ratioP1;P1;durP2;ratioP2;P2;SDS_P1;SDS_P2;PMS_P1;PMS_P2;Temp;Humidity;BMP_temperature;BMP_pressure;BME280_temperature;BME280_humidity;BME280_pressure;Samples;Min_cycle;Max_cycle;Signal;HPM_P1;HPM_P2
2022/01/22 00:02:22;;;;;;;2.90;2.60;;;;;;;2.77;90.79;101573.25;5025191;28;20037;-23
2022/01/22 00:04:48;;;;;;;3.42;3.10;;;;;;;2.79;90.37;101578.53;5022763;28;20026;-23
2022/01/22 00:07:13;;;;;;;3.15;2.83;;;;;;;2.86;90.82;101582.28;5025684;28;20037;-23
2022/01/22 00:09:46;;;;;;;3.97;3.47;;;;;;;2.91;91.17;101584.22;5023946;28;20033;-23
2022/01/22 00:12:22;;;;;;;3.17;2.92;;;;;;;2.92;91.03;101583.38;5026925;28;20036;-23
2022/01/22 00:14:48;;;;;;;3.65;2.80;;;;;;;2.94;90.53;101578.22;5022342;28;20021;-23
2022/01/22 00:17:13;;;;;;;3.50;2.95;;;;;;;2.98;90.88;101574.91;5025271;28;20029;-23
2022/01/22 00:19:39;;;;;;;3.45;3.15;;;;;;;3.02;90.50;101575.88;5023566;28;20728;-23
2022/01/22 00:22:05;;;;;;;3.17;2.88;;;;;;;3.03;90.28;101568.13;5023257;28;20093;-23
2022/01/22 00:24:37;;;;;;;3.78;3.30;;;;;;;3.07;90.39;101569.16;5023291;28;20547;-23
2022/01/22 00:27:03;;;;;;;4.47;3.60;;;;;;;3.10;90.65;101574.44;5025198;28;20608;-23
2022/01/22 00:29:29;;;;;;;3.20;2.90;;;;;;;3.13;90.80;101578.91;5024397;28;20385;-23
2022/01/22 00:31:54;;;;;;;3.28;2.97;;;;;;;3.15;90.66;101578.13;5021637;28;20040;-23
2022/01/22 00:34:20;;;;;;;3.53;3.10;;;;;;;3.17;89.97;101570.38;5038415;28;20210;-23
2022/01/22 00:36:45;;;;;;;5.30;3.50;;;;;;;3.20;91.31;101573.06;5023117;28;20042;-23
2022/01/22 00:39:11;;;;;;;5.43;3.55;;;;;;;3.24;91.56;101576.69;5023541;28;20026;-23
2022/01/22 00:41:37;;;;;;;3.78;2.88;;;;;;;3.25;91.01;101574.13;5021680;28;20076;-23
2022/01/22 00:44:02;;;;;;;3.42;3.10;;;;;;;3.28;90.87;101576.84;5021718;28;20057;-23
2022/01/22 00:46:28;;;;;;;3.15;2.85;;;;;;;3.30;90.69;101576.91;5024283;28;20027;-23
2022/01/22 00:48:54;;;;;;;4.10;3.70;;;;;;;3.32;90.96;101567.41;5021426;28;20060;-23
2022/01/22 00:51:20;;;;;;;4.13;2.95;;;;;;;3.33;91.14;101577.88;5021317;28;20038;-23
2022/01/22 00:53:45;;;;;;;5.35;4.15;;;;;;;3.37;90.63;101578.88;5021528;28;20452;-23
2022/01/22 00:56:11;;;;;;;3.35;3.05;;;;;;;3.36;89.94;101577.09;5021915;28;20025;-23
2022/01/22 00:58:37;;;;;;;3.17;2.88;;;;;;;3.39;90.00;101585.03;5022014;28;20175;-23
2022/01/22 01:01:03;;;;;;;4.40;3.70;;;;;;;3.41;90.66;101583.38;5023022;28;20252;-23
2022/01/22 01:03:32;;;;;;;3.95;3.30;;;;;;;3.42;89.43;101587.75;5020278;28;20419;-23
2022/01/22 01:05:57;;;;;;;4.30;3.47;;;;;;;3.45;89.48;101584.38;5024386;28;20017;-23
2022/01/22 01:08:23;;;;;;;4.93;4.13;;;;;;;3.45;89.32;101582.66;5021007;28;20026;-23
2022/01/22 01:10:49;;;;;;;4.30;3.78;;;;;;;3.49;89.67;101583.63;5023380;28;20040;-23
2022/01/22 01:13:15;;;;;;;4.60;4.10;;;;;;;3.49;90.06;101587.97;5023111;28;20026;-23
2022/01/22 01:16:15;;;;;;;4.57;3.65;;;;;;;3.52;89.51;101593.28;5024264;28;20429;-23
2022/01/22 01:34:41;;;;;;;4.85;4.38;;;;;;;3.60;88.08;101607.47;5022938;28;20041;-23
2022/01/22 01:37:07;;;;;;;6.32;4.75;;;;;;;3.61;88.16;101601.44;5019984;28;20148;-22
2022/01/22 01:39:34;;;;;;;5.95;5.25;;;;;;;3.62;88.29;101608.44;5022369;28;20030;-23
2022/01/22 01:42:10;;;;;;;7.65;5.82;;;;;;;3.63;88.38;101604.13;5021604;28;20025;-23
2022/01/22 01:44:36;;;;;;;6.03;5.10;;;;;;;3.65;87.75;101605.94;5020894;28;20044;-23
2022/01/22 01:47:04;;;;;;;7.50;6.13;;;;;;;3.69;89.55;101602.59;5021768;28;20022;-23
2022/01/22 01:49:30;;;;;;;6.47;5.45;;;;;;;3.70;89.08;101612.19;5020100;28;21002;-23
2022/01/22 01:51:59;;;;;;;6.03;5.28;;;;;;;3.70;88.74;101606.09;5023460;28;20026;-23
2022/01/22 01:59:46;;;;;;;6.70;5.40;;;;;;;3.76;88.81;101615.88;5023008;28;20036;-23
2022/01/22 02:02:12;;;;;;;6.85;5.03;;;;;;;3.75;88.79;101617.56;5020278;28;20044;-23
2022/01/22 02:04:38;;;;;;;6.50;4.93;;;;;;;3.76;88.47;101608.03;5021817;28;20033;-23
2022/01/22 02:07:05;;;;;;;7.03;5.82;;;;;;;3.79;88.18;101610.72;5020766;28;20033;-23
2022/01/22 02:09:33;;;;;;;7.50;5.60;;;;;;;3.80;88.32;101609.91;5023626;28;20053;-23
2022/01/22 02:12:04;;;;;;;6.07;5.40;;;;;;;3.79;88.45;101614.22;5021146;28;20034;-23
2022/01/22 02:25:20;;;;;;;6.30;5.35;;;;;;;3.88;89.02;101608.44;5023479;28;20025;-23
2022/01/22 02:27:45;;;;;;;7.00;5.32;;;;;;;3.89;88.94;101605.00;5021429;28;20033;-23
2022/01/22 02:30:18;;;;;;;6.63;5.32;;;;;;;3.90;88.97;101595.44;5021526;28;20033;-22
2022/01/22 02:33:02;;;;;;;6.55;5.85;;;;;;;3.91;89.23;101592.00;5022087;28;20570;-23
2022/01/22 02:35:33;;;;;;;6.03;5.15;;;;;;;3.92;88.50;101604.19;5023116;28;20342;-23
2022/01/22 02:38:11;;;;;;;7.47;5.95;;;;;;;3.93;88.31;101601.66;5022046;28;20025;-23
2022/01/22 02:40:43;;;;;;;6.93;5.72;;;;;;;3.95;89.06;101589.53;5024178;28;20387;-23
2022/01/22 02:43:12;;;;;;;8.93;6.28;;;;;;;3.98;89.13;101594.84;5022919;28;20025;-23
2022/01/22 02:45:42;;;;;;;8.50;6.18;;;;;;;3.98;89.32;101599.19;5021557;28;20030;-23
2022/01/22 02:48:08;;;;;;;6.13;5.15;;;;;;;3.98;88.49;101600.06;5023001;28;20481;-23
2022/01/22 02:50:34;;;;;;;7.55;5.95;;;;;;;4.00;88.20;101607.09;5021462;28;20044;-23
2022/01/22 02:53:04;;;;;;;7.30;5.70;;;;;;;4.01;88.49;101603.63;5022642;28;20035;-23
2022/01/22 02:55:29;;;;;;;7.15;5.90;;;;;;;4.02;88.63;101606.28;5037499;28;20037;-23
2022/01/22 02:57:55;;;;;;;9.43;6.32;;;;;;;4.04;89.02;101612.44;5022692;28;20026;-23
2022/01/22 03:00:22;;;;;;;6.53;5.05;;;;;;;4.04;88.47;101614.19;5024856;28;20489;-23
2022/01/22 03:02:49;;;;;;;7.70;5.55;;;;;;;4.05;88.11;101610.72;5020907;28;20036;-23
2022/01/22 03:05:15;;;;;;;6.32;5.70;;;;;;;4.05;88.54;101610.72;5023690;28;20032;-23
2022/01/22 03:07:43;;;;;;;6.90;5.63;;;;;;;4.07;88.17;101619.50;5024017;28;20030;-23
2022/01/22 03:10:09;;;;;;;6.93;5.40;;;;;;;4.08;88.04;101621.28;5021547;28;20033;-23
2022/01/22 03:28:55;;;;;;;5.72;5.18;;;;;;;4.14;88.22;101667.59;5028780;28;20112;-22
2022/01/22 03:31:22;;;;;;;5.15;4.60;;;;;;;4.15;87.77;101675.47;5027323;28;20025;-22
2022/01/22 03:33:47;;;;;;;5.80;4.85;;;;;;;4.16;87.98;101677.25;5022944;28;20056;-23
2022/01/22 03:36:14;;;;;;;7.22;5.50;;;;;;;4.17;87.55;101679.00;5027250;28;20115;-22
2022/01/22 03:38:40;;;;;;;5.80;4.93;;;;;;;4.17;87.42;101697.28;5025737;28;20124;-23
2022/01/22 03:41:05;;;;;;;6.25;5.22;;;;;;;4.17;87.28;101696.41;5026114;28;20473;-22
2022/01/22 03:43:31;;;;;;;6.63;4.68;;;;;;;4.19;87.33;101703.47;5025707;28;20021;-22
2022/01/22 03:45:56;;;;;;;5.00;3.90;;;;;;;4.20;88.39;101707.84;5019897;28;20044;-23
2022/01/22 03:48:22;;;;;;;4.95;3.80;;;;;;;4.19;88.42;101710.41;4993831;28;20065;-22
2022/01/22 03:50:49;;;;;;;4.43;3.88;;;;;;;4.20;87.57;101710.44;5025169;28;20049;-22
2022/01/22 03:53:15;;;;;;;5.50;3.88;;;;;;;4.21;87.80;101717.44;5024167;28;20029;-23
2022/01/22 03:58:25;;;;;;;5.07;3.40;;;;;;;4.21;87.58;101717.44;5020909;28;20095;-22
2022/01/22 04:01:01;;;;;;;4.03;3.33;;;;;;;4.22;87.53;101729.69;5020743;28;20033;-23
2022/01/22 04:03:32;;;;;;;3.78;2.90;;;;;;;4.26;87.57;101735.03;5024324;28;20025;-22
2022/01/22 04:06:44;;;;;;;3.63;2.70;;;;;;;4.26;87.65;101745.47;5026964;28;20029;-23
2022/01/22 04:08:46;;;;;;;3.28;2.65;;;;;;;4.24;87.93;101745.41;5023672;28;20044;-23
2022/01/22 04:11:15;;;;;;;3.65;3.10;;;;;;;4.26;87.76;101741.13;5024891;28;20025;-22
2022/01/22 04:13:41;;;;;;;3.00;2.50;;;;;;;4.27;87.39;101752.47;5024986;28;20117;-23
2022/01/22 04:16:08;;;;;;;3.47;3.00;;;;;;;4.28;87.02;101754.22;5020080;28;20084;-23
2022/01/22 04:27:15;;;;;;;4.80;3.38;;;;;;;4.30;87.77;101763.03;5024175;28;20810;-23
2022/01/22 04:29:41;;;;;;;3.85;3.17;;;;;;;4.28;87.42;101760.34;5024400;28;20072;-23
2022/01/22 04:32:07;;;;;;;5.68;3.08;;;;;;;4.28;87.75;101764.69;5025558;28;20067;-23
2022/01/22 04:34:33;;;;;;;4.38;3.65;;;;;;;4.29;86.86;101777.78;5023389;28;20030;-23
2022/01/22 04:36:59;;;;;;;3.05;2.70;;;;;;;4.30;86.78;101776.06;5023697;28;20029;-23
2022/01/22 04:39:26;;;;;;;3.95;2.83;;;;;;;4.29;86.78;101782.13;5025699;28;20078;-23
2022/01/22 04:41:55;;;;;;;5.28;2.88;;;;;;;4.29;86.92;101784.72;5018581;28;20044;-23
2022/01/22 04:44:23;;;;;;;2.90;2.60;;;;;;;4.28;87.21;101780.34;5024223;28;20036;-23
2022/01/22 04:46:57;;;;;;;3.22;2.38;;;;;;;4.29;86.96;101792.56;5025080;28;20059;-23
2022/01/22 04:57:19;;;;;;;2.95;2.65;;;;;;;4.28;86.83;101803.84;5022543;28;20088;-23
2022/01/22 04:59:45;;;;;;;4.25;2.90;;;;;;;4.28;86.44;101804.75;5024819;28;20770;-22
2022/01/22 05:02:11;;;;;;;4.25;2.92;;;;;;;4.29;86.71;101813.47;5023032;28;20029;-23
2022/01/22 05:04:36;;;;;;;2.67;2.47;;;;;;;4.29;87.11;101818.69;5025397;28;20033;-23
2022/01/22 05:07:02;;;;;;;2.83;2.55;;;;;;;4.27;86.59;101826.47;5024887;28;20063;-23
2022/01/22 05:09:28;;;;;;;2.78;2.33;;;;;;;4.28;87.07;101832.59;5025545;28;20033;-23
2022/01/22 05:11:54;;;;;;;3.55;2.58;;;;;;;4.28;86.76;101830.88;5023864;28;20029;-23
2022/01/22 05:14:20;;;;;;;2.97;2.67;;;;;;;4.24;86.38;101837.69;5023482;28;20021;-23
2022/01/22 05:16:45;;;;;;;3.35;2.65;;;;;;;4.27;86.33;101833.44;5023019;28;20424;-23
2022/01/22 05:19:22;;;;;;;3.97;2.63;;;;;;;4.26;86.59;101835.13;5024777;28;20041;-23
2022/01/22 05:21:50;;;;;;;5.13;2.58;;;;;;;4.28;86.48;101837.81;5023543;28;20033;-23
2022/01/22 05:24:21;;;;;;;2.45;2.25;;;;;;;4.28;85.49;101829.97;5022443;28;20108;-23
2022/01/22 05:27:12;;;;;;;3.17;2.47;;;;;;;4.26;85.26;101835.13;5021425;28;20116;-22
2022/01/22 05:32:31;;;;;;;;;;;;;;;4.27;86.56;101836.91;5021014;28;20107;-23
2022/01/22 05:37:40;;;;;;;4.03;2.72;;;;;;;4.26;86.87;101829.03;5021935;28;20072;-23
2022/01/22 05:40:07;;;;;;;3.10;2.70;;;;;;;4.23;86.82;101835.91;5022206;28;20033;-23
2022/01/22 05:42:32;;;;;;;3.05;2.20;;;;;;;4.23;86.05;101842.84;5021191;28;20029;-23
2022/01/22 05:44:58;;;;;;;3.63;2.83;;;;;;;4.23;85.99;101848.97;5019975;28;20029;-23
2022/01/22 05:47:27;;;;;;;4.05;3.03;;;;;;;4.22;85.61;101855.03;5021837;28;20535;-22
2022/01/22 05:49:53;;;;;;;3.10;2.72;;;;;;;4.22;86.01;101865.50;5021935;28;20512;-23
2022/01/22 05:52:35;;;;;;;2.83;2.40;;;;;;;4.22;86.42;101870.72;5020114;28;20097;-23
2022/01/22 06:00:11;;;;;;;3.47;2.70;;;;;;;4.19;85.15;101874.91;5023849;28;20091;-23
2022/01/22 06:02:37;;;;;;;3.38;3.00;;;;;;;4.18;85.33;101879.28;5023566;28;20029;-22
2022/01/22 06:05:02;;;;;;;2.53;2.33;;;;;;;4.17;84.74;101890.53;5023865;28;20483;-23
2022/01/22 06:07:28;;;;;;;3.75;2.47;;;;;;;4.17;84.51;101884.44;5024866;28;20113;-22
2022/01/22 06:10:15;;;;;;;3.97;2.67;;;;;;;4.17;85.76;101892.28;5023986;28;20029;-22
2022/01/22 06:15:07;;;;;;;5.22;2.85;;;;;;;4.15;85.63;101883.47;5023097;28;20490;-22
2022/01/22 06:17:32;;;;;;;5.95;3.25;;;;;;;4.16;86.13;101882.63;5025046;28;20038;-22
2022/01/22 06:19:58;;;;;;;2.95;2.58;;;;;;;4.15;85.89;101889.59;5025219;28;20036;-22
2022/01/22 06:22:23;;;;;;;4.25;3.10;;;;;;;4.15;85.94;101886.09;5021125;28;20036;-23
2022/01/22 06:24:48;;;;;;;3.33;3.03;;;;;;;4.14;85.86;101881.69;5024417;28;20120;-23
2022/01/22 06:27:14;;;;;;;4.40;3.55;;;;;;;4.13;86.09;101890.38;5020498;28;20025;-23
2022/01/22 06:29:39;;;;;;;4.30;2.85;;;;;;;4.13;86.36;101906.06;5021192;28;20028;-23
2022/01/22 06:32:05;;;;;;;3.67;3.35;;;;;;;4.10;86.07;101905.09;5021518;28;20062;-23
2022/01/22 06:34:31;;;;;;;3.72;3.15;;;;;;;4.09;86.17;101905.03;5021295;28;20559;-22
2022/01/22 06:36:56;;;;;;;3.30;2.97;;;;;;;4.09;86.57;101899.81;5018803;28;20120;-23
2022/01/22 06:39:23;;;;;;;3.55;3.08;;;;;;;4.09;86.04;101905.03;5022091;28;20099;-23
2022/01/22 06:41:49;;;;;;;4.93;3.10;;;;;;;4.07;86.46;101904.97;5017887;28;20382;-23
2022/01/22 06:44:19;;;;;;;4.45;2.95;;;;;;;4.06;85.73;101910.13;5022431;28;20044;-22
2022/01/22 06:46:48;;;;;;;4.88;3.40;;;;;;;4.06;85.96;101910.13;5023029;28;20028;-23
2022/01/22 06:49:14;;;;;;;3.40;2.70;;;;;;;4.05;85.65;101914.47;5023892;28;20037;-23
2022/01/22 06:51:40;;;;;;;3.42;2.55;;;;;;;4.04;85.81;101917.91;5024239;28;20018;-23
2022/01/22 06:54:07;;;;;;;4.18;2.53;;;;;;;4.05;85.98;101934.47;5024561;28;20485;-23
2022/01/22 06:56:33;;;;;;;3.28;2.80;;;;;;;4.01;86.07;101922.13;5024263;28;20050;-23
2022/01/22 06:58:59;;;;;;;4.75;2.85;;;;;;;4.03;86.20;101930.94;5025138;28;20088;-22
2022/01/22 07:01:26;;;;;;;3.50;3.08;;;;;;;4.01;86.39;101927.34;5007354;28;20613;-23
2022/01/22 07:03:51;;;;;;;2.92;2.60;;;;;;;4.00;86.17;101928.19;5023287;28;20111;-22
2022/01/22 07:06:17;;;;;;;4.95;2.75;;;;;;;4.00;85.91;101941.25;5023941;28;20018;-23
2022/01/22 07:08:43;;;;;;;3.65;2.65;;;;;;;3.98;86.47;101943.78;5026409;28;20386;-23
2022/01/22 07:11:08;;;;;;;3.97;2.75;;;;;;;3.98;86.15;101949.88;5021478;28;20033;-23
2022/01/22 07:13:34;;;;;;;3.65;2.58;;;;;;;3.95;85.78;101936.75;5024900;28;20032;-23
2022/01/22 07:16:00;;;;;;;3.38;2.50;;;;;;;3.95;85.98;101943.66;5020988;28;20033;-22
2022/01/22 07:18:28;;;;;;;2.90;2.60;;;;;;;3.94;85.75;101947.13;5023028;28;20106;-23
2022/01/22 07:20:54;;;;;;;3.25;2.60;;;;;;;3.94;85.65;101953.22;5025341;28;20041;-23
2022/01/22 07:25:45;;;;;;;4.20;2.80;;;;;;;3.92;85.38;101965.31;5026867;28;20014;-23
2022/01/22 07:28:12;;;;;;;3.50;2.63;;;;;;;3.91;85.44;101966.16;5025738;28;20022;-23
2022/01/22 07:30:39;;;;;;;3.25;2.47;;;;;;;3.91;85.26;101965.25;5022735;28;20086;-23
2022/01/22 07:33:04;;;;;;;3.05;2.75;;;;;;;3.90;85.58;101972.19;5024839;28;20882;-23
2022/01/22 07:35:33;;;;;;;3.45;2.50;;;;;;;3.90;85.89;101980.03;5022892;28;20076;-23
2022/01/22 07:38:00;;;;;;;3.72;2.55;;;;;;;3.88;85.42;101981.69;5027913;28;20104;-23
2022/01/22 07:40:26;;;;;;;2.47;2.28;;;;;;;3.88;85.65;101978.19;5026627;28;20409;-23
2022/01/22 07:42:51;;;;;;;2.78;2.58;;;;;;;3.87;85.61;101987.72;5027728;28;20029;-23
2022/01/22 07:45:17;;;;;;;3.67;2.28;;;;;;;3.87;85.94;101981.63;5025109;28;20032;-23
2022/01/22 07:47:42;;;;;;;3.38;2.58;;;;;;;3.87;85.90;101979.03;5026567;28;20030;-23
2022/01/22 07:50:08;;;;;;;4.47;2.50;;;;;;;3.86;86.06;101985.97;5024036;28;20032;-23
2022/01/22 07:52:34;;;;;;;3.35;2.78;;;;;;;3.84;85.94;101967.63;5024048;28;20497;-23
2022/01/22 07:55:00;;;;;;;3.80;2.78;;;;;;;3.84;85.70;101975.44;5028247;28;20063;-23
2022/01/22 07:57:25;;;;;;;3.10;2.83;;;;;;;3.85;86.43;101984.19;5024053;28;20076;-23
2022/01/22 07:59:51;;;;;;;4.35;2.30;;;;;;;3.82;86.14;101981.44;5023361;28;20052;-23
2022/01/22 08:02:16;;;;;;;3.75;2.72;;;;;;;3.83;86.39;101986.72;5021157;28;20043;-23
2022/01/22 08:04:42;;;;;;;3.63;2.65;;;;;;;3.83;85.92;101983.22;5025755;28;20032;-23
2022/01/22 08:07:08;;;;;;;3.85;2.85;;;;;;;3.82;86.46;101984.97;5024350;28;20493;-23
2022/01/22 08:09:34;;;;;;;3.28;2.58;;;;;;;3.82;85.25;101991.88;5025040;28;20594;-23
2022/01/22 08:12:01;;;;;;;2.85;2.50;;;;;;;3.82;85.26;101989.28;5022641;28;20030;-23
2022/01/22 08:14:27;;;;;;;3.45;2.95;;;;;;;3.80;84.90;101996.16;5025165;28;20747;-23
2022/01/22 08:16:53;;;;;;;2.88;2.13;;;;;;;3.81;84.89;102005.78;5024877;28;20034;-23
2022/01/22 08:19:18;;;;;;;3.38;2.40;;;;;;;3.82;84.96;102002.31;5023426;28;20028;-23
2022/01/22 08:21:45;;;;;;;3.55;2.60;;;;;;;3.82;84.83;102010.16;5021024;28;20037;-23
2022/01/22 08:24:12;;;;;;;4.40;2.50;;;;;;;3.81;84.82;102004.03;5024831;28;20029;-23
2022/01/22 08:26:43;;;;;;;4.47;3.13;;;;;;;3.82;85.03;102010.16;5024960;28;20108;-23
2022/01/22 08:29:09;;;;;;;5.13;2.75;;;;;;;3.82;86.08;102007.53;5023027;28;20083;-23
2022/01/22 08:36:47;;;;;;;3.45;2.38;;;;;;;3.82;86.98;102026.72;5018954;28;20068;-23
2022/01/22 08:39:17;;;;;;;3.35;2.20;;;;;;;3.83;86.36;102017.16;5025318;28;20123;-23
2022/01/22 08:41:44;;;;;;;4.90;3.15;;;;;;;3.83;86.26;102027.59;5026271;28;20040;-23
2022/01/22 08:44:10;;;;;;;4.90;3.20;;;;;;;3.83;86.82;102033.72;5026635;28;20132;-23
2022/01/22 08:46:36;;;;;;;5.93;3.42;;;;;;;3.83;86.95;102033.72;5027337;28;20106;-23
2022/01/22 08:49:06;;;;;;;4.25;2.72;;;;;;;3.83;86.46;102035.41;5026227;28;20113;-23
2022/01/22 08:51:33;;;;;;;4.57;2.72;;;;;;;3.83;86.17;102033.72;5025616;28;20079;-23
2022/01/22 08:54:00;;;;;;;4.80;2.88;;;;;;;3.84;85.41;102037.22;5027472;28;20041;-23
2022/01/22 08:56:26;;;;;;;6.32;2.80;;;;;;;3.84;84.86;102039.84;5024019;28;20067;-23
2022/01/22 08:58:52;;;;;;;4.72;3.03;;;;;;;3.84;84.63;102037.22;5025968;28;20104;-23
2022/01/22 09:01:18;;;;;;;3.45;2.70;;;;;;;3.84;84.76;102042.44;5024591;28;20059;-23
2022/01/22 09:03:44;;;;;;;4.85;2.90;;;;;;;3.88;84.77;102053.88;5027901;28;20032;-23
2022/01/22 09:06:11;;;;;;;4.57;3.45;;;;;;;3.85;85.28;102052.94;5026954;28;20029;-23
2022/01/22 09:08:38;;;;;;;5.40;3.60;;;;;;;3.87;84.57;102055.59;5026678;28;20056;-23
2022/01/22 09:11:04;;;;;;;3.78;3.00;;;;;;;3.88;85.36;102060.00;5024583;28;20079;-23
2022/01/22 09:13:29;;;;;;;4.53;3.35;;;;;;;3.88;85.18;102060.00;5027153;28;20029;-23
2022/01/22 09:15:55;;;;;;;5.40;3.58;;;;;;;3.90;84.47;102066.16;5027289;28;20080;-23
2022/01/22 09:18:22;;;;;;;5.13;3.70;;;;;;;3.89;84.76;102059.19;5024597;28;20099;-23
2022/01/22 09:23:17;;;;;;;6.22;4.03;;;;;;;3.92;85.18;102072.34;5024103;28;20101;-23
2022/01/22 09:25:43;;;;;;;5.63;3.92;;;;;;;3.92;84.97;102064.53;5023672;28;20398;-23
2022/01/22 09:28:13;;;;;;;5.50;4.60;;;;;;;3.93;85.38;102075.84;5024007;28;20036;-23
2022/01/22 09:30:43;;;;;;;6.25;4.85;;;;;;;3.93;85.23;102071.53;5024041;28;20028;-23
2022/01/22 09:33:08;;;;;;;5.85;3.95;;;;;;;3.95;84.88;102077.72;5024575;28;20413;-23
2022/01/22 09:35:35;;;;;;;6.88;4.88;;;;;;;3.97;85.06;102080.38;5021359;28;20057;-23
2022/01/22 09:38:00;;;;;;;7.53;6.00;;;;;;;3.97;84.67;102083.88;5021209;28;20029;-23
2022/01/22 09:40:27;;;;;;;8.90;6.47;;;;;;;3.98;85.33;102079.56;5024068;28;20400;-23
2022/01/22 09:42:53;;;;;;;8.07;6.18;;;;;;;4.00;85.09;102088.31;5023282;28;20033;-23
2022/01/22 09:45:20;;;;;;;7.90;5.30;;;;;;;4.02;85.14;102080.56;5021702;28;20032;-23
2022/01/22 09:47:47;;;;;;;8.00;6.13;;;;;;;4.03;84.99;102088.44;5020784;28;20029;-23
2022/01/22 09:50:13;;;;;;;7.60;5.90;;;;;;;4.04;84.73;102094.56;5023173;28;20022;-23
2022/01/22 09:52:39;;;;;;;8.15;6.40;;;;;;;4.06;84.75;102111.19;5020569;28;20025;-23
2022/01/22 09:55:06;;;;;;;6.95;5.55;;;;;;;4.06;84.81;102098.13;5022391;28;20060;-23
2022/01/22 09:57:34;;;;;;;8.60;5.93;;;;;;;4.09;84.94;102106.09;5022435;28;20036;-23
2022/01/22 10:00:00;;;;;;;8.00;5.43;;;;;;;4.10;84.75;102107.84;5022870;28;20028;-23
2022/01/22 10:02:26;;;;;;;9.32;6.05;;;;;;;4.12;84.70;102111.44;5021572;28;20382;-23
2022/01/22 10:04:52;;;;;;;8.77;5.93;;;;;;;4.13;85.42;102108.00;5023851;28;20079;-23
2022/01/22 10:07:21;;;;;;;8.02;6.05;;;;;;;4.15;85.81;102113.28;5019371;28;20373;-23
2022/01/22 10:10:05;;;;;;;9.82;6.50;;;;;;;4.16;85.80;102110.72;5019722;28;20029;-23
2022/01/22 10:12:42;;;;;;;7.55;5.50;;;;;;;4.17;84.86;102106.41;5021553;28;20052;-23
2022/01/22 10:15:11;;;;;;;8.23;5.45;;;;;;;4.19;85.06;102113.47;5022656;28;20030;-23
2022/01/22 10:17:47;;;;;;;7.30;5.95;;;;;;;4.21;84.97;102106.56;5021268;28;20044;-23
2022/01/22 10:20:26;;;;;;;8.52;6.00;;;;;;;4.23;85.02;102111.88;5024075;28;20088;-23
2022/01/22 10:23:03;;;;;;;6.88;6.05;;;;;;;4.23;84.68;102106.63;5026749;28;20040;-23
2022/01/22 10:25:37;;;;;;;8.05;6.13;;;;;;;4.26;84.87;102113.75;5027157;28;20421;-23
2022/01/22 10:28:10;;;;;;;9.88;7.55;;;;;;;4.27;84.64;102111.16;5023101;28;20042;-23
2022/01/22 10:30:37;;;;;;;7.93;6.35;;;;;;;4.29;84.62;102113.84;5025798;28;20068;-23
2022/01/22 10:36:10;;;;;;;10.20;7.78;;;;;;;4.33;84.53;102115.75;5024955;28;20044;-23
2022/01/22 10:38:54;;;;;;;10.15;6.40;;;;;;;4.34;84.21;102115.81;5025460;28;20033;-23
2022/01/22 10:41:37;;;;;;;10.40;7.68;;;;;;;4.35;84.31;102117.59;5025364;28;20059;-23
2022/01/22 10:44:04;;;;;;;9.23;6.97;;;;;;;4.37;84.12;102115.06;5010535;28;20099;-23
2022/01/22 10:49:28;;;;;;;11.38;8.00;;;;;;;4.41;84.32;102118.66;5022554;28;20196;-23
2022/01/22 10:51:59;;;;;;;8.98;7.38;;;;;;;4.42;84.02;102118.72;5023333;28;20045;-23
2022/01/22 10:54:26;;;;;;;;;;;;;;;4.45;84.09;102118.84;5024568;28;20034;-23
2022/01/22 10:56:53;;;;;;;10.45;6.90;;;;;;;4.46;84.17;102120.63;5022623;28;20003;-23
2022/01/22 10:59:20;;;;;;;10.90;7.45;;;;;;;4.47;83.96;102122.41;5022010;28;20804;-23
2022/01/22 11:01:46;;;;;;;10.18;7.63;;;;;;;4.49;84.32;102115.53;5021801;28;20036;-23
2022/01/22 11:04:14;;;;;;;11.25;8.13;;;;;;;4.51;83.87;102112.09;5022839;28;20025;-23
2022/01/22 11:06:46;;;;;;;10.43;6.57;;;;;;;4.53;84.31;102126.13;5021090;28;20588;-23
2022/01/22 11:09:12;;;;;;;10.60;8.02;;;;;;;4.55;84.02;102119.22;5028238;28;20049;-23
2022/01/22 11:11:40;;;;;;;8.82;7.30;;;;;;;4.57;84.27;102112.34;5025458;28;20134;-23
2022/01/22 11:14:08;;;;;;;12.73;7.70;;;;;;;4.60;84.10;102109.81;5024382;28;20053;-23
2022/01/22 11:16:34;;;;;;;11.38;7.93;;;;;;;4.61;84.16;102109.88;5027660;28;20021;-23
2022/01/22 11:19:01;;;;;;;9.02;7.38;;;;;;;4.61;84.33;102109.00;5026874;28;20021;-23
2022/01/22 11:21:27;;;;;;;10.05;7.30;;;;;;;4.66;84.65;102114.38;5025653;28;20035;-23
2022/01/22 11:23:53;;;;;;;10.73;7.25;;;;;;;4.66;84.47;102112.69;5027156;28;20531;-23
2022/01/22 11:26:19;;;;;;;10.65;7.65;;;;;;;4.70;84.79;102113.69;5020042;28;20561;-23
2022/01/22 11:28:45;;;;;;;13.23;7.95;;;;;;;4.71;84.16;102124.19;5025270;28;20120;-23
2022/01/22 11:31:14;;;;;;;12.63;8.15;;;;;;;4.72;84.96;102115.53;5028987;28;20033;-23
2022/01/22 11:33:41;;;;;;;11.65;7.55;;;;;;;4.73;84.06;102109.47;5017027;28;20033;-23
2022/01/22 11:36:22;;;;;;;10.73;7.38;;;;;;;4.76;84.36;102103.47;5026375;28;20454;-23
2022/01/22 11:38:55;;;;;;;11.35;7.35;;;;;;;4.80;84.24;102105.34;5005804;28;20733;-23
2022/01/22 11:41:23;;;;;;;11.45;7.53;;;;;;;4.81;84.21;102112.38;5023655;28;20075;-23
2022/01/22 11:44:09;;;;;;;10.15;7.18;;;;;;;4.83;83.59;102109.81;5025546;28;20083;-23
2022/01/22 11:46:58;;;;;;;11.63;8.48;;;;;;;4.88;85.75;102108.28;5022886;28;20499;-23
2022/01/22 11:49:27;;;;;;;10.18;7.32;;;;;;;4.88;84.14;102105.66;5023146;28;20041;-23
2022/01/22 11:52:13;;;;;;;12.23;7.82;;;;;;;4.91;84.78;102107.50;5028787;28;20053;-23
2022/01/22 11:54:52;;;;;;;12.38;8.75;;;;;;;4.93;84.05;102109.31;5022395;28;20393;-23
2022/01/22 11:57:18;;;;;;;11.07;7.55;;;;;;;4.93;84.74;102111.94;5022566;28;20025;-23
2022/01/22 11:59:46;;;;;;;12.52;7.90;;;;;;;4.97;84.49;102110.34;5023667;28;20028;-23
2022/01/22 12:02:16;;;;;;;14.13;8.32;;;;;;;4.99;84.16;102117.41;5027126;28;20530;-23
2022/01/22 12:04:41;;;;;;;10.95;7.63;;;;;;;5.01;84.01;102110.50;5026271;28;20033;-23
2022/01/22 12:07:07;;;;;;;12.32;7.93;;;;;;;5.01;83.77;102115.72;5026355;28;20029;-23
2022/01/22 12:10:14;;;;;;;14.60;9.95;;;;;;;5.06;84.87;102113.28;5027440;28;20497;-23
2022/01/22 12:15:23;;;;;;;12.38;9.07;;;;;;;5.09;84.47;102107.28;5026108;28;20441;-23
2022/01/22 12:17:55;;;;;;;16.35;9.75;;;;;;;5.09;84.72;102110.78;5026669;28;20052;-23
2022/01/22 12:21:30;;;;;;;12.70;8.65;;;;;;;5.11;83.94;102108.25;5023132;28;20102;-21
2022/01/22 12:23:33;;;;;;;13.65;8.63;;;;;;;5.12;84.29;102108.31;5020355;28;20037;-22
2022/01/22 12:26:00;;;;;;;19.50;9.77;;;;;;;5.11;83.46;102101.25;5024909;28;20540;-22
2022/01/22 12:28:44;;;;;;;16.77;11.52;;;;;;;5.17;83.95;102115.41;5020776;28;20291;-23
2022/01/22 12:31:19;;;;;;;21.23;12.00;;;;;;;5.17;85.21;102111.06;5024774;28;20409;-21
2022/01/22 12:33:49;;;;;;;17.60;11.02;;;;;;;5.20;85.07;102115.53;5022668;28;20590;-21
2022/01/22 12:36:24;;;;;;;20.77;11.57;;;;;;;5.21;84.98;102107.75;5025198;28;20490;-24
2022/01/22 12:39:15;;;;;;;20.98;11.18;;;;;;;5.23;85.36;102110.41;5024312;28;20658;-24
2022/01/22 12:41:50;;;;;;;19.23;11.18;;;;;;;5.21;85.38;102104.22;5021911;28;20393;-22
2022/01/22 12:44:46;;;;;;;15.30;10.32;;;;;;;5.23;84.21;102105.16;5022762;28;20084;-21
2022/01/22 12:47:13;;;;;;;16.30;10.13;;;;;;;5.23;83.82;102100.84;5022746;28;20789;-22
2022/01/22 12:49:39;;;;;;;22.20;12.63;;;;;;;5.24;83.57;102105.22;5024328;28;20083;-21
2022/01/22 12:52:10;;;;;;;16.80;12.07;;;;;;;5.26;83.71;102116.66;5023348;28;20029;-21
2022/01/22 12:54:48;;;;;;;17.02;11.77;;;;;;;5.26;83.71;102105.28;5021014;28;20029;-24
2022/01/22 12:57:17;;;;;;;19.55;13.57;;;;;;;5.26;83.85;102111.41;5021642;28;20709;-23
2022/01/22 13:00:13;;;;;;;17.05;12.18;;;;;;;5.29;83.80;102117.56;5023429;28;20113;-21
2022/01/22 13:02:43;;;;;;;16.70;11.02;;;;;;;5.28;84.02;102111.47;5022926;28;20108;-21
2022/01/22 13:05:10;;;;;;;16.00;11.33;;;;;;;5.32;84.24;102107.22;5008026;28;20060;-21
2022/01/22 13:07:45;;;;;;;22.30;12.75;;;;;;;5.32;84.87;102109.84;5024348;28;20539;-21
2022/01/22 13:10:12;;;;;;;20.63;11.95;;;;;;;5.32;83.71;102108.13;5022877;28;20041;-23
2022/01/22 13:12:43;;;;;;;22.27;13.68;;;;;;;5.33;83.33;102096.81;5024054;28;20103;-22
2022/01/22 13:15:12;;;;;;;14.43;10.80;;;;;;;5.33;83.60;102090.72;5023327;28;20029;-21
2022/01/22 13:17:39;;;;;;;19.48;12.30;;;;;;;5.35;83.65;102094.25;5021129;28;20112;-22
2022/01/22 13:20:06;;;;;;;17.73;12.13;;;;;;;5.36;83.83;102096.94;5022199;28;20584;-23